Time;durP1;ratioP1;P1;durP2;ratioP2;P2;SDS_P1;SDS_P2;PMS_P1;PMS_P2;Temp;Humidity;BMP_temperature;BMP_pressure;BME280_temperature;BME280_humidity;BME280_pressure;Samples;Min_cycle;Max_cycle;Signal;HPM_P1;HPM_P2
2022/03/30 00:00:50;;;;;;;33.73;17.33;;;9.90;99.90;;;;;;4948639;28;20187;-85
2022/03/30 00:03:16;;;;;;;24.30;12.33;;;10.00;99.90;;;;;;4946911;28;20181;-86
2022/03/30 00:05:41;;;;;;;26.43;15.07;;;10.00;99.90;;;;;;4946291;28;20659;-84
2022/03/30 00:08:08;;;;;;;23.53;14.53;;;10.00;99.90;;;;;;4944037;28;25267;-84
2022/03/30 00:10:34;;;;;;;25.33;14.88;;;9.90;99.90;;;;;;4947820;28;20188;-84
2022/03/30 00:13:00;;;;;;;25.33;14.82;;;9.70;99.90;;;;;;4949028;28;20207;-84
2022/03/30 00:15:26;;;;;;;26.83;16.60;;;9.70;99.90;;;;;;4964712;28;20185;-86
2022/03/30 00:17:52;;;;;;;29.95;17.13;;;9.70;99.90;;;;;;4953238;28;20482;-83
2022/03/30 00:20:18;;;;;;;30.90;17.57;;;9.70;99.90;;;;;;4946847;28;20713;-85
2022/03/30 00:22:44;;;;;;;26.63;16.20;;;9.70;99.90;;;;;;4950624;28;20188;-85
2022/03/30 00:25:11;;;;;;;32.57;18.93;;;9.70;99.90;;;;;;4948395;28;20702;-85
2022/03/30 00:27:38;;;;;;;31.65;17.45;;;9.80;99.90;;;;;;4950704;28;20286;-85
2022/03/30 00:30:05;;;;;;;32.60;15.93;;;9.80;99.90;;;;;;4945929;28;20208;-83
2022/03/30 00:32:31;;;;;;;25.67;17.15;;;9.90;99.90;;;;;;4954791;28;20195;-86
2022/03/30 00:34:57;;;;;;;32.92;18.13;;;10.00;99.90;;;;;;4945220;28;20198;-82
2022/03/30 00:37:22;;;;;;;31.50;17.83;;;10.00;99.90;;;;;;4949007;28;20189;-85
2022/03/30 00:39:48;;;;;;;29.70;17.23;;;10.20;99.90;;;;;;4945198;28;20204;-84
2022/03/30 00:42:19;;;;;;;30.83;18.07;;;10.20;99.90;;;;;;4949980;28;20283;-87
2022/03/30 00:44:46;;;;;;;31.05;16.00;;;10.40;99.90;;;;;;4946451;28;20206;-85
2022/03/30 00:47:32;;;;;;;28.30;14.02;;;10.50;99.90;;;;;;4942667;28;20226;-85
2022/03/30 00:49:58;;;;;;;31.45;15.73;;;10.50;99.90;;;;;;4941595;28;21032;-83
2022/03/30 00:52:23;;;;;;;32.97;19.20;;;10.60;99.90;;;;;;4945552;28;20206;-85
2022/03/30 00:54:50;;;;;;;33.70;19.50;;;10.70;99.90;;;;;;4942223;28;20192;-84
2022/03/30 00:57:20;;;;;;;31.48;20.38;;;10.50;99.90;;;;;;4945469;28;20187;-85
2022/03/30 00:59:47;;;;;;;32.97;19.00;;;10.50;99.90;;;;;;4949182;28;20218;-85
2022/03/30 01:02:14;;;;;;;33.17;18.08;;;10.60;99.90;;;;;;4942701;28;20180;-84
2022/03/30 01:04:40;;;;;;;34.65;20.60;;;10.60;99.90;;;;;;4946503;28;20280;-86
2022/03/30 01:07:05;;;;;;;33.73;18.53;;;10.60;99.90;;;;;;4945942;28;20211;-85
2022/03/30 01:09:31;;;;;;;35.07;20.10;;;10.60;99.90;;;;;;4947109;28;20212;-85
2022/03/30 01:11:57;;;;;;;36.83;21.47;;;10.50;99.90;;;;;;4945731;28;20195;-84
2022/03/30 01:14:23;;;;;;;36.75;19.67;;;10.50;99.90;;;;;;4948844;28;20184;-85
2022/03/30 01:16:50;;;;;;;40.97;21.95;;;10.40;99.90;;;;;;4945663;28;22232;-84
2022/03/30 01:19:16;;;;;;;38.22;18.95;;;10.40;99.90;;;;;;4961752;28;20216;-84
2022/03/30 01:21:42;;;;;;;37.15;21.00;;;10.40;99.90;;;;;;4949962;28;20216;-83
2022/03/30 01:24:10;;;;;;;34.35;20.75;;;10.60;99.90;;;;;;4950306;28;20188;-86
2022/03/30 01:26:37;;;;;;;37.25;21.65;;;;;;;;;;4949470;28;20685;-83
2022/03/30 01:34:41;;;;;;;34.30;20.85;;;11.00;99.90;;;;;;4948747;28;20827;-83
2022/03/30 01:37:08;;;;;;;35.47;19.88;;;11.10;99.90;;;;;;4945801;28;20222;-83
2022/03/30 01:39:34;;;;;;;37.35;20.45;;;11.00;99.90;;;;;;4947686;28;20223;-84
2022/03/30 01:42:01;;;;;;;31.37;19.73;;;10.90;99.90;;;;;;4947378;28;20294;-85
2022/03/30 01:44:27;;;;;;;30.35;19.83;;;11.00;99.90;;;;;;4952142;28;20438;-84
2022/03/30 01:46:53;;;;;;;31.03;19.43;;;11.00;99.90;;;;;;4941282;28;20692;-84
2022/03/30 01:49:22;;;;;;;30.73;19.20;;;11.00;99.90;;;;;;4952111;28;20465;-85
2022/03/30 01:51:49;;;;;;;31.00;19.67;;;11.00;99.90;;;;;;4943850;28;20196;-85
2022/03/30 01:54:20;;;;;;;30.85;18.90;;;11.10;99.90;;;;;;4947948;28;20188;-86
2022/03/30 01:56:47;;;;;;;36.20;19.45;;;11.10;99.90;;;;;;4948453;28;20458;-85
2022/03/30 01:59:13;;;;;;;36.80;18.88;;;11.10;99.90;;;;;;4948143;28;20212;-84
2022/03/30 02:01:38;;;;;;;29.15;18.85;;;11.10;99.90;;;;;;4949644;28;20215;-84
2022/03/30 02:04:06;;;;;;;39.23;20.00;;;11.10;99.90;;;;;;4950002;28;20842;-83
2022/03/30 02:06:35;;;;;;;33.35;19.75;;;11.20;99.90;;;;;;4952031;28;20197;-84
2022/03/30 02:09:01;;;;;;;32.53;21.48;;;11.30;99.90;;;;;;4946119;28;20212;-84
2022/03/30 02:11:27;;;;;;;33.50;21.20;;;11.40;99.90;;;;;;4949947;28;20180;-85
2022/03/30 02:13:53;;;;;;;31.23;19.80;;;11.40;99.90;;;;;;4946842;28;20195;-85
2022/03/30 02:16:19;;;;;;;31.25;19.45;;;11.40;99.90;;;;;;4947930;28;20193;-86
2022/03/30 02:18:45;;;;;;;32.35;19.13;;;11.40;99.90;;;;;;4953923;28;20668;-85
2022/03/30 02:21:11;;;;;;;30.98;19.75;;;11.40;99.90;;;;;;4943814;28;20314;-85
2022/03/30 02:23:39;;;;;;;26.87;17.20;;;11.20;99.90;;;;;;4939316;28;20190;-85
2022/03/30 02:26:05;;;;;;;30.15;17.52;;;10.90;99.90;;;;;;4949596;28;20469;-84
2022/03/30 02:28:30;;;;;;;27.23;17.80;;;10.80;99.90;;;;;;4947450;28;20213;-85
2022/03/30 02:30:56;;;;;;;27.10;17.00;;;10.80;99.90;;;;;;4949154;28;20541;-84
2022/03/30 02:33:23;;;;;;;30.13;16.87;;;10.70;99.90;;;;;;4946215;28;20207;-84
2022/03/30 02:35:50;;;;;;;29.27;18.23;;;10.60;99.90;;;;;;4946230;28;20198;-86
2022/03/30 02:38:16;;;;;;;30.02;16.48;;;10.70;99.90;;;;;;4945365;28;20219;-83
2022/03/30 02:40:41;;;;;;;29.07;17.93;;;10.60;99.90;;;;;;4987875;28;20397;-85
2022/03/30 02:43:07;;;;;;;26.40;15.47;;;11.40;99.90;;;;;;4965566;28;20676;-86
2022/03/30 02:45:32;;;;;;;29.67;17.30;;;10.40;99.90;;;;;;4955887;28;20184;-86
2022/03/30 02:50:44;;;;;;;32.72;17.40;;;10.30;99.90;;;;;;4956138;28;20183;-86
2022/03/30 02:53:10;;;;;;;30.05;17.33;;;10.20;99.90;;;;;;4941349;28;23418;-86
2022/03/30 02:55:35;;;;;;;33.10;19.93;;;10.10;99.90;;;;;;4947078;28;20188;-85
2022/03/30 02:58:01;;;;;;;30.67;18.83;;;10.10;99.90;;;;;;4952278;28;20209;-85
2022/03/30 03:00:27;;;;;;;33.40;19.53;;;10.10;99.90;;;;;;4948992;28;20239;-86
2022/03/30 03:02:53;;;;;;;42.13;21.25;;;10.20;99.90;;;;;;4950039;28;20191;-85
2022/03/30 03:05:21;;;;;;;36.47;18.90;;;10.30;99.90;;;;;;4954302;28;20254;-86
2022/03/30 03:07:47;;;;;;;40.20;22.08;;;10.30;99.90;;;;;;4956369;28;20235;-86
2022/03/30 03:10:13;;;;;;;33.93;21.50;;;10.40;99.90;;;;;;4946854;28;21244;-86
2022/03/30 03:12:39;;;;;;;33.63;19.13;;;;;;;;;;4952250;28;20176;-86
2022/03/30 03:15:05;;;;;;;37.95;21.38;;;10.30;99.90;;;;;;4952111;28;20180;-86
2022/03/30 03:17:31;;;;;;;36.67;21.48;;;10.00;99.90;;;;;;4967149;28;20195;-87
2022/03/30 03:19:57;;;;;;;39.77;22.90;;;9.80;99.90;;;;;;4949982;28;20429;-86
2022/03/30 03:22:23;;;;;;;42.37;23.67;;;9.90;99.90;;;;;;4949197;28;20855;-86
2022/03/30 03:24:48;;;;;;;33.17;21.20;;;10.00;99.90;;;;;;4946468;28;20192;-86
2022/03/30 03:27:14;;;;;;;51.47;23.53;;;9.90;99.90;;;;;;4940967;28;20213;-86
2022/03/30 03:29:39;;;;;;;33.23;22.17;;;9.90;99.90;;;;;;4951232;28;20637;-85
2022/03/30 03:32:08;;;;;;;45.63;25.63;;;9.80;99.90;;;;;;4947617;28;20276;-84
2022/03/30 03:34:33;;;;;;;51.38;23.20;;;9.70;99.90;;;;;;4949508;28;20261;-86
2022/03/30 03:36:59;;;;;;;44.60;24.07;;;;;;;;;;4948451;28;20201;-85
2022/03/30 03:39:25;;;;;;;36.93;22.30;;;9.90;99.90;;;;;;4950950;28;20207;-86
2022/03/30 03:41:50;;;;;;;40.30;22.73;;;;;;;;;;4953308;28;20470;-86
2022/03/30 03:44:16;;;;;;;42.27;23.37;;;10.00;99.90;;;;;;4955801;28;20834;-87
2022/03/30 03:46:41;;;;;;;42.10;22.80;;;10.00;99.90;;;;;;4946233;28;20467;-84
2022/03/30 03:49:08;;;;;;;51.67;26.73;;;9.90;99.90;;;;;;4951395;28;20214;-85
2022/03/30 03:51:34;;;;;;;40.13;22.63;;;10.00;99.90;;;;;;4944571;28;20231;-83
2022/03/30 03:54:01;;;;;;;35.87;23.00;;;10.00;99.90;;;;;;4950807;28;20192;-85
2022/03/30 03:56:27;;;;;;;39.03;23.65;;;10.50;99.90;;;;;;4950249;28;20195;-85
2022/03/30 03:58:53;;;;;;;37.83;21.35;;;10.10;99.90;;;;;;4950790;28;20582;-83
2022/03/30 04:01:18;;;;;;;44.93;24.50;;;10.00;99.90;;;;;;4966679;28;20199;-86
2022/03/30 04:03:44;;;;;;;49.30;25.20;;;9.90;99.90;;;;;;4966305;28;20192;-84
2022/03/30 04:06:10;;;;;;;50.03;24.70;;;9.80;99.90;;;;;;4956347;28;20286;-84
2022/03/30 04:08:35;;;;;;;44.50;24.50;;;9.80;99.90;;;;;;4951392;28;20234;-85
2022/03/30 04:11:01;;;;;;;42.47;21.53;;;;;;;;;;4953972;28;20175;-84
2022/03/30 04:13:27;;;;;;;44.60;23.77;;;9.80;99.90;;;;;;4956573;28;20188;-84
2022/03/30 04:15:53;;;;;;;41.90;23.77;;;9.90;99.90;;;;;;4952119;28;20586;-84
2022/03/30 04:18:19;;;;;;;46.65;24.90;;;11.60;99.90;;;;;;4951320;28;20200;-86
2022/03/30 04:20:45;;;;;;;40.33;23.83;;;9.70;99.90;;;;;;4948390;28;20610;-85
2022/03/30 04:23:11;;;;;;;39.80;22.73;;;9.70;99.90;;;;;;4949000;28;21272;-85
2022/03/30 04:25:37;;;;;;;38.17;23.05;;;10.00;99.90;;;;;;4948963;28;20189;-87
2022/03/30 04:28:03;;;;;;;41.87;23.43;;;9.50;99.90;;;;;;4949304;28;20212;-85
2022/03/30 04:30:28;;;;;;;56.58;26.00;;;9.50;99.90;;;;;;4954400;28;20280;-85
2022/03/30 04:32:54;;;;;;;50.83;25.07;;;9.50;99.90;;;;;;4946232;28;20184;-83
2022/03/30 04:35:25;;;;;;;45.97;25.77;;;11.00;99.90;;;;;;4951615;28;20944;-85
2022/03/30 04:37:59;;;;;;;42.78;25.00;;;9.40;99.90;;;;;;4945578;28;20247;-85
2022/03/30 04:40:26;;;;;;;48.42;29.75;;;9.40;99.90;;;;;;4945417;28;20305;-83
2022/03/30 04:42:52;;;;;;;59.97;29.98;;;9.40;99.90;;;;;;4944154;28;20191;-83
2022/03/30 04:45:19;;;;;;;50.23;25.27;;;9.40;99.90;;;;;;4944514;28;20188;-85
2022/03/30 04:47:44;;;;;;;54.75;28.58;;;9.20;99.90;;;;;;4946274;28;20204;-84
2022/03/30 04:50:10;;;;;;;52.63;26.53;;;9.20;99.90;;;;;;4937844;28;20216;-84
2022/03/30 04:52:37;;;;;;;45.58;25.17;;;9.80;99.90;;;;;;4942258;28;20184;-83
2022/03/30 04:55:04;;;;;;;50.15;29.65;;;9.70;99.90;;;;;;4950244;28;20187;-86
2022/03/30 04:57:30;;;;;;;48.83;27.30;;;8.90;99.90;;;;;;4947088;28;20719;-85
2022/03/30 04:59:56;;;;;;;56.10;28.90;;;8.90;99.90;;;;;;4952992;28;20227;-84
2022/03/30 05:02:22;;;;;;;44.03;26.80;;;8.90;99.90;;;;;;4968650;28;20883;-85
2022/03/30 05:04:48;;;;;;;60.35;31.40;;;8.80;99.90;;;;;;4971902;28;20203;-83
2022/03/30 05:07:14;;;;;;;45.90;29.67;;;8.80;99.90;;;;;;4965545;28;20468;-84
2022/03/30 05:09:40;;;;;;;61.60;30.10;;;8.80;99.90;;;;;;4955955;28;20499;-87
2022/03/30 05:12:06;;;;;;;46.25;27.60;;;8.80;99.90;;;;;;4953455;28;20192;-85
2022/03/30 05:14:35;;;;;;;68.25;30.42;;;8.90;99.90;;;;;;4954447;28;20717;-85
2022/03/30 05:17:01;;;;;;;53.40;27.50;;;8.90;99.90;;;;;;4949292;28;20183;-84
2022/03/30 05:19:27;;;;;;;53.92;27.58;;;8.80;99.90;;;;;;4950209;28;20208;-88
2022/03/30 05:21:52;;;;;;;52.23;27.93;;;8.80;99.90;;;;;;4953914;28;20275;-84
2022/03/30 05:24:18;;;;;;;45.93;26.10;;;8.80;99.90;;;;;;4956680;28;20246;-87
2022/03/30 05:26:43;;;;;;;65.93;24.70;;;8.80;99.90;;;;;;4950857;28;20212;-85
2022/03/30 05:29:09;;;;;;;42.73;22.60;;;;;;;;;;4952526;28;20204;-84
2022/03/30 05:31:35;;;;;;;51.53;22.10;;;8.70;99.90;;;;;;4957337;28;20214;-87
2022/03/30 05:34:00;;;;;;;56.00;24.87;;;8.70;99.90;;;;;;4960281;28;20436;-85
2022/03/30 05:36:26;;;;;;;43.73;22.27;;;9.10;99.90;;;;;;4973634;28;20202;-87
2022/03/30 05:38:52;;;;;;;57.73;23.53;;;8.70;99.90;;;;;;4958700;28;20283;-84
2022/03/30 05:41:18;;;;;;;46.57;24.63;;;8.60;99.90;;;;;;4956195;28;20188;-83
2022/03/30 05:43:43;;;;;;;54.95;26.13;;;8.90;99.90;;;;;;4953008;28;20188;-85
2022/03/30 05:46:09;;;;;;;57.23;29.60;;;9.00;99.90;;;;;;4952586;28;20602;-86
2022/03/30 05:48:35;;;;;;;61.50;27.30;;;9.00;99.90;;;;;;4945813;28;20299;-85
2022/03/30 05:51:01;;;;;;;43.83;23.52;;;9.20;99.90;;;;;;4946720;28;20187;-86
2022/03/30 05:53:26;;;;;;;51.33;24.03;;;9.20;99.90;;;;;;4955944;28;20192;-83
2022/03/30 05:55:52;;;;;;;38.53;20.10;;;;;;;;;;4964706;28;20179;-87
2022/03/30 05:58:18;;;;;;;44.70;19.90;;;9.10;99.90;;;;;;4964243;28;20192;-85
2022/03/30 06:00:45;;;;;;;46.40;21.20;;;9.00;99.90;;;;;;4950689;28;20440;-86
2022/03/30 06:03:10;;;;;;;37.13;19.13;;;8.80;99.90;;;;;;4954525;28;20876;-87
2022/03/30 06:05:37;;;;;;;45.43;19.33;;;8.90;99.90;;;;;;4952642;28;20251;-83
2022/03/30 06:08:04;;;;;;;38.35;19.52;;;8.90;99.90;;;;;;4949815;28;20223;-87
2022/03/30 06:10:30;;;;;;;33.03;18.63;;;8.90;99.90;;;;;;4957826;28;20192;-86
2022/03/30 06:12:56;;;;;;;45.90;18.53;;;8.90;99.90;;;;;;4954213;28;20184;-85
2022/03/30 06:15:23;;;;;;;34.92;17.48;;;8.90;99.90;;;;;;4954627;28;20354;-85
2022/03/30 06:17:50;;;;;;;39.85;16.27;;;8.90;99.90;;;;;;4964636;28;20674;-85
2022/03/30 06:20:16;;;;;;;39.40;16.77;;;8.90;99.90;;;;;;4968957;28;20204;-84
2022/03/30 06:22:42;;;;;;;26.93;14.73;;;8.90;99.90;;;;;;4972004;28;20982;-85
2022/03/30 06:25:09;;;;;;;34.27;16.23;;;8.90;99.90;;;;;;4965346;28;20447;-84
2022/03/30 06:27:36;;;;;;;29.77;14.02;;;8.90;99.90;;;;;;4957131;28;20208;-86
2022/03/30 06:30:04;;;;;;;29.35;14.90;;;8.80;99.90;;;;;;4952685;28;20803;-86
2022/03/30 06:32:30;;;;;;;35.15;13.68;;;8.80;99.90;;;;;;4953418;28;20267;-86
2022/03/30 06:34:56;;;;;;;24.37;12.40;;;;;;;;;;4960727;28;20718;-85
2022/03/30 06:37:22;;;;;;;21.97;12.87;;;;;;;;;;4951204;28;20470;-85
2022/03/30 06:39:49;;;;;;;24.23;13.25;;;8.80;99.90;;;;;;4958781;28;20469;-85
2022/03/30 06:42:16;;;;;;;19.80;12.15;;;8.80;99.90;;;;;;4943998;28;20559;-84
2022/03/30 06:44:43;;;;;;;21.92;12.70;;;8.80;99.90;;;;;;4957027;28;20188;-87
2022/03/30 06:47:09;;;;;;;21.52;11.73;;;8.90;99.90;;;;;;4947138;28;20232;-85
2022/03/30 06:49:36;;;;;;;26.17;14.90;;;9.00;99.90;;;;;;4949919;28;20240;-86
2022/03/30 06:52:06;;;;;;;39.10;17.67;;;9.10;99.90;;;;;;4943212;28;20176;-86
2022/03/30 06:54:34;;;;;;;37.80;18.90;;;9.10;99.90;;;;;;4954425;28;21030;-87
2022/03/30 06:57:00;;;;;;;30.00;15.75;;;9.50;99.90;;;;;;4946461;28;20188;-85
2022/03/30 06:59:26;;;;;;;30.77;14.85;;;9.50;99.90;;;;;;4942530;28;20204;-87
2022/03/30 07:01:53;;;;;;;23.17;13.17;;;9.60;99.90;;;;;;4958762;28;20258;-86
2022/03/30 07:04:19;;;;;;;29.40;15.63;;;9.70;99.90;;;;;;4946300;28;21014;-84
2022/03/30 07:12:13;;;;;;;27.77;14.52;;;9.50;99.90;;;;;;4962267;28;20191;-86
2022/03/30 07:14:38;;;;;;;34.87;15.27;;;;;;;;;;4952177;28;21146;-86
2022/03/30 07:17:04;;;;;;;27.27;13.30;;;9.90;99.90;;;;;;4947583;28;20297;-87
2022/03/30 07:19:30;;;;;;;25.57;13.37;;;10.10;99.90;;;;;;4943918;28;20460;-86
2022/03/30 07:21:55;;;;;;;30.17;14.87;;;10.30;99.90;;;;;;4969190;28;20169;-85
2022/03/30 07:24:21;;;;;;;32.07;14.83;;;10.20;99.90;;;;;;4958191;28;20231;-86
2022/03/30 07:26:46;;;;;;;25.23;13.43;;;10.20;99.90;;;;;;4951158;28;20207;-85
2022/03/30 07:29:12;;;;;;;25.50;11.20;;;10.30;99.90;;;;;;4944128;28;20307;-87
2022/03/30 07:31:37;;;;;;;19.30;12.00;;;10.50;99.90;;;;;;4971842;28;20181;-85
2022/03/30 07:34:04;;;;;;;29.27;13.63;;;10.60;99.90;;;;;;4969462;28;20165;-86
2022/03/30 07:36:29;;;;;;;18.05;12.77;;;10.80;99.90;;;;;;4950779;28;20259;-86
2022/03/30 07:38:55;;;;;;;31.00;14.23;;;11.10;99.90;;;;;;4952638;28;20211;-87
2022/03/30 07:41:21;;;;;;;21.30;11.20;;;11.40;99.90;;;;;;4953030;28;20447;-86
2022/03/30 07:43:46;;;;;;;26.80;11.20;;;11.50;99.90;;;;;;4949177;28;20731;-87
2022/03/30 07:46:13;;;;;;;22.40;12.60;;;11.70;99.90;;;;;;4943229;28;20208;-86
2022/03/30 07:48:39;;;;;;;27.92;12.50;;;11.80;99.90;;;;;;4952422;28;20228;-88
2022/03/30 07:51:05;;;;;;;26.63;11.73;;;12.00;99.90;;;;;;4945201;28;20191;-85
2022/03/30 07:53:30;;;;;;;14.20;8.23;;;12.20;99.90;;;;;;4945501;28;20471;-85
2022/03/30 07:55:56;;;;;;;19.47;7.90;;;12.10;99.90;;;;;;4949870;28;20175;-86
2022/03/30 07:58:25;;;;;;;16.88;9.30;;;12.00;99.90;;;;;;4945168;28;20214;-87
2022/03/30 08:00:51;;;;;;;15.27;8.18;;;12.10;99.90;;;;;;4953547;28;20245;-86
2022/03/30 08:03:17;;;;;;;18.33;8.80;;;12.00;99.90;;;;;;4947637;28;20696;-85
2022/03/30 08:05:43;;;;;;;20.50;10.23;;;11.90;99.90;;;;;;4946844;28;20200;-86
2022/03/30 08:08:08;;;;;;;24.47;10.60;;;11.70;99.90;;;;;;4953179;28;20468;-85
2022/03/30 08:10:35;;;;;;;24.00;10.63;;;11.50;99.90;;;;;;4971309;28;20209;-85
2022/03/30 08:13:02;;;;;;;16.38;8.65;;;11.60;99.90;;;;;;4954090;28;20211;-87
2022/03/30 08:15:28;;;;;;;23.73;12.95;;;11.80;99.90;;;;;;4951657;28;20187;-86
2022/03/30 08:17:54;;;;;;;27.67;14.32;;;11.90;99.90;;;;;;4948506;28;20517;-86
2022/03/30 08:23:06;;;;;;;26.58;14.27;;;12.20;99.90;;;;;;4961442;28;20207;-84
2022/03/30 08:25:31;;;;;;;27.60;10.60;;;12.20;99.90;;;;;;4970476;28;20196;-85
2022/03/30 08:27:57;;;;;;;26.73;11.37;;;12.30;99.90;;;;;;4967935;28;20246;-87
2022/03/30 08:30:23;;;;;;;16.37;9.20;;;12.30;99.90;;;;;;4951852;28;20216;-86
2022/03/30 08:32:48;;;;;;;15.40;8.40;;;12.40;99.90;;;;;;4944226;28;20547;-87
2022/03/30 08:35:14;;;;;;;17.70;9.53;;;12.40;99.90;;;;;;4950396;28;20561;-86
2022/03/30 08:37:40;;;;;;;19.23;11.80;;;12.40;99.90;;;;;;4957089;28;20189;-88
2022/03/30 08:40:07;;;;;;;23.93;10.93;;;12.40;99.90;;;;;;4948215;28;20954;-87
2022/03/30 08:42:34;;;;;;;16.48;9.93;;;12.50;99.90;;;;;;4944216;28;20724;-87
2022/03/30 08:45:02;;;;;;;22.23;10.30;;;12.50;99.90;;;;;;4970632;28;20264;-87
2022/03/30 08:47:28;;;;;;;17.20;8.40;;;12.50;99.90;;;;;;4968050;28;21216;-86
2022/03/30 08:49:53;;;;;;;19.43;9.53;;;12.50;99.90;;;;;;4957014;28;20294;-86
2022/03/30 08:52:19;;;;;;;17.70;9.87;;;12.30;99.90;;;;;;4950861;28;20191;-86
2022/03/30 08:54:46;;;;;;;23.40;10.10;;;12.20;99.90;;;;;;4947291;28;20192;-86
2022/03/30 08:57:13;;;;;;;26.08;11.18;;;11.80;99.90;;;;;;4950900;28;20184;-88
2022/03/30 08:59:39;;;;;;;24.27;10.20;;;11.80;99.90;;;;;;4955449;28;20242;-86
2022/03/30 09:02:07;;;;;;;19.73;9.70;;;11.60;99.90;;;;;;4948552;28;20200;-86
2022/03/30 09:04:32;;;;;;;19.13;10.70;;;11.60;99.90;;;;;;4941845;28;20187;-86
2022/03/30 09:06:59;;;;;;;29.07;12.00;;;11.60;99.90;;;;;;4942413;28;20220;-86
2022/03/30 09:09:36;;;;;;;17.30;9.60;;;11.80;99.90;;;;;;4943564;28;20211;-86
2022/03/30 09:12:07;;;;;;;27.20;11.35;;;11.90;99.90;;;;;;4949309;28;20187;-86
2022/03/30 09:14:37;;;;;;;32.92;14.10;;;11.80;99.90;;;;;;4944265;28;20195;-86
2022/03/30 09:17:06;;;;;;;32.53;14.60;;;11.80;99.90;;;;;;4943882;28;20901;-86
2022/03/30 09:19:40;;;;;;;22.30;13.40;;;11.80;99.90;;;;;;4940049;28;20596;-87
2022/03/30 09:22:09;;;;;;;27.70;15.27;;;11.70;99.90;;;;;;4943924;28;22974;-85
2022/03/30 09:24:36;;;;;;;34.38;16.30;;;11.60;99.90;;;;;;4942823;28;20249;-84
2022/03/30 09:27:05;;;;;;;30.67;15.82;;;11.40;99.90;;;;;;4939300;28;20219;-86
2022/03/30 09:29:33;;;;;;;29.45;15.73;;;11.40;99.90;;;;;;4962783;28;20198;-84
2022/03/30 09:32:07;;;;;;;25.50;15.38;;;11.40;99.90;;;;;;4959522;28;20196;-84
2022/03/30 09:34:35;;;;;;;35.88;16.40;;;11.40;99.90;;;;;;4951694;28;20196;-86
2022/03/30 09:37:01;;;;;;;29.25;13.02;;;11.40;99.90;;;;;;4948275;28;20805;-85
2022/03/30 09:39:35;;;;;;;28.00;12.33;;;11.50;99.90;;;;;;4958373;28;20292;-84
2022/03/30 09:42:03;;;;;;;20.77;13.93;;;11.50;99.90;;;;;;4962403;28;20498;-85
2022/03/30 09:44:30;;;;;;;31.65;14.98;;;11.50;99.90;;;;;;4956017;28;20191;-87
2022/03/30 09:46:58;;;;;;;23.55;13.38;;;11.50;99.90;;;;;;4948349;28;20275;-86
2022/03/30 09:49:41;;;;;;;23.98;14.38;;;11.20;99.90;;;;;;4943767;28;20338;-85
2022/03/30 09:52:26;;;;;;;20.75;13.80;;;10.90;99.90;;;;;;4940674;28;20184;-85
2022/03/30 09:54:54;;;;;;;24.38;13.57;;;10.90;99.90;;;;;;4947475;28;20183;-84
2022/03/30 09:57:41;;;;;;;23.48;12.57;;;10.80;99.90;;;;;;4972873;28;20181;-84
2022/03/30 10:00:17;;;;;;;26.23;13.95;;;10.70;99.90;;;;;;4956416;28;20299;-86
2022/03/30 10:02:46;;;;;;;27.13;13.73;;;10.70;99.90;;;;;;4956964;28;20193;-86
2022/03/30 10:05:14;;;;;;;26.48;15.32;;;10.70;99.90;;;;;;4954556;28;20200;-84
2022/03/30 10:07:40;;;;;;;27.30;16.65;;;10.80;99.90;;;;;;4954003;28;20211;-86
2022/03/30 10:10:09;;;;;;;24.90;15.68;;;10.80;99.90;;;;;;4953487;28;20934;-85
2022/03/30 10:12:35;;;;;;;26.77;14.75;;;10.80;99.90;;;;;;4955370;28;20223;-85
2022/03/30 10:15:00;;;;;;;32.33;15.27;;;12.20;99.90;;;;;;4970860;28;20201;-85
2022/03/30 10:17:28;;;;;;;30.90;15.97;;;10.90;99.90;;;;;;4958962;28;20276;-84
2022/03/30 10:19:57;;;;;;;30.52;15.45;;;11.00;99.90;;;;;;4954619;28;20308;-86
2022/03/30 10:22:38;;;;;;;32.80;21.02;;;11.10;99.90;;;;;;4955370;28;20188;-86
2022/03/30 10:25:25;;;;;;;29.33;15.27;;;11.10;99.90;;;;;;4954151;28;20190;-84
2022/03/30 10:27:56;;;;;;;26.05;17.08;;;11.00;99.90;;;;;;4954174;28;20207;-85
2022/03/30 10:30:30;;;;;;;41.78;23.00;;;10.90;99.90;;;;;;4959209;28;20613;-85
2022/03/30 10:33:00;;;;;;;30.85;18.58;;;10.70;99.90;;;;;;4945481;28;20607;-84
2022/03/30 10:35:46;;;;;;;30.35;16.60;;;10.60;99.90;;;;;;4947821;28;20244;-84
2022/03/30 10:38:12;;;;;;;28.98;16.52;;;10.50;99.90;;;;;;4947382;28;20183;-84
2022/03/30 10:40:39;;;;;;;33.92;17.65;;;10.50;99.90;;;;;;4943145;28;20196;-84
2022/03/30 10:43:13;;;;;;;30.10;16.65;;;10.50;99.90;;;;;;4943379;28;20283;-85
2022/03/30 10:45:45;;;;;;;26.13;16.73;;;10.70;99.90;;;;;;4943472;28;21033;-86
2022/03/30 10:48:28;;;;;;;27.67;17.08;;;10.50;99.90;;;;;;4962562;28;20684;-86
2022/03/30 10:50:57;;;;;;;27.27;16.73;;;10.50;99.90;;;;;;4948543;28;21262;-84
2022/03/30 10:53:35;;;;;;;28.50;17.15;;;10.40;99.90;;;;;;4946082;28;20275;-84
2022/03/30 10:56:15;;;;;;;30.20;15.15;;;10.30;99.90;;;;;;4949663;28;20184;-84
2022/03/30 10:58:52;;;;;;;30.50;16.83;;;10.20;99.90;;;;;;4943593;28;20216;-85
2022/03/30 11:01:18;;;;;;;30.13;16.00;;;10.10;99.90;;;;;;4941950;28;20186;-86
2022/03/30 11:04:18;;;;;;;26.80;14.65;;;10.00;99.90;;;;;;4946436;28;20269;-85
2022/03/30 11:07:13;;;;;;;28.75;13.75;;;9.80;99.90;;;;;;4949546;28;20207;-84
2022/03/30 11:09:40;;;;;;;24.80;15.80;;;9.60;99.90;;;;;;4953893;28;20200;-85
2022/03/30 11:12:13;;;;;;;28.23;17.17;;;9.30;99.90;;;;;;4956970;28;20191;-83
2022/03/30 11:14:43;;;;;;;38.35;20.73;;;9.10;99.90;;;;;;4952623;28;20219;-86
2022/03/30 11:17:10;;;;;;;38.03;20.27;;;9.10;99.90;;;;;;4949208;28;20244;-84
2022/03/30 11:19:49;;;;;;;37.47;21.95;;;8.90;99.90;;;;;;4940888;28;20214;-85
2022/03/30 11:22:32;;;;;;;44.67;25.17;;;8.80;99.90;;;;;;4952658;28;20191;-84
2022/03/30 11:25:19;;;;;;;46.45;24.65;;;8.70;99.90;;;;;;4945896;28;20181;-85
2022/03/30 11:27:57;;;;;;;41.60;25.15;;;8.70;99.90;;;;;;4949237;28;20211;-84
2022/03/30 11:30:23;;;;;;;38.70;22.35;;;8.70;99.90;;;;;;4948697;28;20972;-85
2022/03/30 11:32:52;;;;;;;40.45;22.90;;;8.70;99.90;;;;;;4950148;28;20196;-85
2022/03/30 11:35:20;;;;;;;48.38;24.77;;;8.70;99.90;;;;;;4947409;28;20177;-83
2022/03/30 11:37:49;;;;;;;39.00;23.25;;;8.60;99.90;;;;;;4952454;28;20204;-86
2022/03/30 11:40:18;;;;;;;44.92;26.17;;;8.50;99.90;;;;;;4958829;28;20231;-85
2022/03/30 11:42:47;;;;;;;47.97;26.20;;;8.50;99.90;;;;;;4959052;28;20191;-84
2022/03/30 11:45:20;;;;;;;45.83;22.88;;;8.50;99.90;;;;;;4967328;28;20180;-86
2022/03/30 11:47:58;;;;;;;45.05;26.70;;;8.50;99.90;;;;;;4973322;28;20208;-83
2022/03/30 11:50:31;;;;;;;42.50;23.38;;;8.50;99.90;;;;;;4970204;28;20227;-85
2022/03/30 11:53:04;;;;;;;40.45;23.63;;;8.70;99.90;;;;;;4959304;28;20191;-85
2022/03/30 11:55:32;;;;;;;40.53;23.30;;;8.60;99.90;;;;;;4958670;28;24904;-84
2022/03/30 11:58:00;;;;;;;36.33;23.27;;;8.50;99.90;;;;;;4951014;28;20192;-84
2022/03/30 12:00:27;;;;;;;42.33;22.65;;;8.50;99.90;;;;;;4945355;28;20208;-85
2022/03/30 12:02:58;;;;;;;41.63;22.52;;;8.50;99.90;;;;;;4956653;28;20302;-85
2022/03/30 12:05:24;;;;;;;45.40;23.88;;;8.50;99.90;;;;;;4953290;28;20188;-85
2022/03/30 12:07:55;;;;;;;52.20;24.85;;;8.50;99.90;;;;;;4953659;28;20215;-86
2022/03/30 12:10:26;;;;;;;41.47;23.88;;;8.50;99.90;;;;;;4958026;28;20243;-85
2022/03/30 12:12:52;;;;;;;45.88;23.45;;;8.50;99.90;;;;;;4958250;28;20215;-85
2022/03/30 12:15:22;;;;;;;42.10;23.20;;;8.60;99.90;;;;;;4953284;28;20188;-85
2022/03/30 12:17:56;;;;;;;41.95;23.30;;;8.60;99.90;;;;;;4952381;28;20473;-84
2022/03/30 12:20:30;;;;;;;37.10;22.30;;;8.80;99.90;;;;;;4964677;28;20220;-83
2022/03/30 12:23:01;;;;;;;42.75;23.92;;;8.80;99.90;;;;;;4965765;28;20201;-84
2022/03/30 12:25:37;;;;;;;35.05;22.40;;;8.90;99.90;;;;;;4952195;28;20192;-85
2022/03/30 12:28:03;;;;;;;38.47;21.65;;;8.80;99.90;;;;;;4951373;28;20215;-85
2022/03/30 12:30:31;;;;;;;47.03;24.77;;;8.80;99.90;;;;;;4949370;28;20184;-85
2022/03/30 12:32:57;;;;;;;42.50;23.80;;;8.80;99.90;;;;;;4955845;28;20184;-84
2022/03/30 12:35:30;;;;;;;45.97;23.67;;;9.00;99.90;;;;;;4943835;28;22510;-84
2022/03/30 12:38:11;;;;;;;42.10;22.55;;;8.70;99.90;;;;;;4947109;28;20195;-85
2022/03/30 12:40:40;;;;;;;40.05;23.05;;;8.70;99.90;;;;;;4941397;28;20263;-84
2022/03/30 12:43:07;;;;;;;44.40;22.50;;;8.80;99.90;;;;;;4943251;28;20188;-84
2022/03/30 12:45:33;;;;;;;39.80;21.25;;;;;;;;;;4947347;28;20215;-85
2022/03/30 12:48:01;;;;;;;40.77;21.70;;;8.80;99.90;;;;;;4946238;28;20207;-85
2022/03/30 12:50:36;;;;;;;42.25;22.52;;;8.70;99.90;;;;;;4946036;28;20432;-84
2022/03/30 12:53:15;;;;;;;37.78;19.95;;;8.90;99.90;;;;;;4943970;28;20188;-85
2022/03/30 12:55:49;;;;;;;35.72;19.50;;;8.80;99.90;;;;;;4945626;28;20180;-85